createdAt,value
2023-08-07T00:02:05.239Z,1.10
2023-08-07T00:04:32.038Z,1.30
2023-08-07T00:06:58.825Z,1.00
2023-08-07T00:09:25.622Z,1.20
2023-08-07T00:11:52.452Z,1.20
2023-08-07T00:14:19.255Z,0.97
2023-08-07T00:16:46.139Z,1.40
2023-08-07T00:19:12.936Z,1.13
2023-08-07T00:21:40.249Z,1.00
2023-08-07T00:24:07.224Z,1.03
2023-08-07T00:26:34.114Z,1.20
2023-08-07T00:29:01.209Z,0.90
2023-08-07T00:31:32.166Z,1.00
2023-08-07T00:34:00.703Z,0.87
2023-08-07T00:36:30.049Z,0.83
2023-08-07T00:38:57.152Z,1.10
2023-08-07T00:41:24.405Z,1.13
2023-08-07T00:43:51.377Z,1.17
2023-08-07T00:46:19.446Z,0.90
2023-08-07T00:48:47.060Z,1.03
2023-08-07T00:51:14.220Z,1.50
2023-08-07T00:53:41.748Z,1.03
2023-08-07T00:56:08.854Z,1.30
2023-08-07T00:58:35.975Z,0.90
2023-08-07T01:01:04.004Z,0.90
2023-08-07T01:03:31.027Z,0.47
2023-08-07T01:05:58.173Z,1.03
2023-08-07T01:08:28.905Z,1.17
2023-08-07T01:11:23.711Z,0.60
2023-08-07T01:14:16.412Z,0.50
2023-08-07T01:16:54.333Z,0.80
2023-08-07T01:19:26.440Z,0.60
2023-08-07T01:22:07.974Z,1.53
2023-08-07T01:24:39.051Z,0.80
2023-08-07T01:27:23.989Z,0.70
2023-08-07T01:30:18.947Z,0.90
2023-08-07T01:33:17.745Z,0.87
2023-08-07T01:35:48.785Z,0.87
2023-08-07T01:38:16.363Z,0.90
2023-08-07T01:40:44.769Z,1.10
2023-08-07T01:43:11.501Z,1.03
2023-08-07T01:45:38.585Z,0.90
2023-08-07T01:48:05.681Z,1.00
2023-08-07T01:50:32.682Z,1.30
2023-08-07T01:52:59.527Z,1.00
2023-08-07T01:55:26.568Z,0.83
2023-08-07T01:57:53.549Z,0.70
2023-08-07T02:00:20.895Z,0.90
2023-08-07T02:02:48.308Z,0.83
2023-08-07T02:05:16.191Z,0.83
2023-08-07T02:07:43.270Z,0.80
2023-08-07T02:10:10.293Z,0.83
2023-08-07T02:12:37.177Z,1.20
2023-08-07T02:15:04.358Z,1.00
2023-08-07T02:17:31.696Z,0.80
2023-08-07T02:19:59.008Z,1.10
2023-08-07T02:22:26.233Z,0.80
2023-08-07T02:24:53.060Z,1.00
2023-08-07T02:27:19.923Z,1.20
2023-08-07T02:29:47.582Z,0.90
2023-08-07T02:32:14.369Z,0.90
2023-08-07T02:34:41.409Z,0.77
2023-08-07T02:37:08.176Z,1.30
2023-08-07T02:39:34.991Z,1.10
2023-08-07T02:42:01.969Z,1.40
2023-08-07T02:44:28.777Z,1.37
2023-08-07T02:46:55.803Z,0.93
2023-08-07T02:49:22.937Z,1.07
2023-08-07T02:51:49.903Z,0.80
2023-08-07T02:54:16.676Z,1.10
2023-08-07T02:56:43.540Z,1.13
2023-08-07T02:59:10.374Z,1.10
2023-08-07T03:01:37.330Z,1.10
2023-08-07T03:04:04.290Z,1.47
2023-08-07T03:06:31.247Z,1.20
2023-08-07T03:08:58.002Z,1.17
2023-08-07T03:11:24.868Z,1.20
2023-08-07T03:13:51.672Z,1.23
2023-08-07T03:16:18.834Z,1.23
2023-08-07T03:18:46.112Z,1.30
2023-08-07T03:21:12.895Z,1.30
2023-08-07T03:23:40.718Z,1.17
2023-08-07T03:28:40.915Z,1.20
2023-08-07T03:31:07.871Z,1.43
2023-08-07T03:33:36.546Z,1.30
2023-08-07T03:36:03.525Z,1.23
2023-08-07T03:38:30.367Z,1.20
2023-08-07T03:40:57.943Z,1.20
2023-08-07T03:43:25.202Z,1.20
2023-08-07T03:46:00.335Z,1.00
2023-08-07T03:48:30.601Z,1.47
2023-08-07T03:51:05.608Z,1.30
2023-08-07T03:53:36.404Z,1.17
2023-08-07T03:56:03.536Z,1.17
2023-08-07T03:58:31.829Z,1.23
2023-08-07T04:00:58.840Z,1.50
2023-08-07T04:03:26.522Z,1.47
2023-08-07T04:05:55.621Z,1.20
2023-08-07T04:08:24.258Z,1.20
2023-08-07T04:11:04.440Z,1.40
2023-08-07T04:13:33.499Z,1.30
2023-08-07T04:16:02.149Z,1.60
2023-08-07T04:18:30.283Z,1.33
2023-08-07T04:20:58.156Z,1.20
2023-08-07T04:23:25.571Z,1.47
2023-08-07T04:25:53.859Z,1.47
2023-08-07T04:28:20.835Z,1.27
2023-08-07T04:30:52.168Z,0.90
2023-08-07T04:33:20.188Z,1.43
2023-08-07T04:35:47.933Z,1.10
2023-08-07T04:38:18.519Z,1.27
2023-08-07T04:40:49.558Z,1.40
2023-08-07T04:43:23.226Z,1.53
2023-08-07T04:45:50.491Z,1.50
2023-08-07T04:48:19.092Z,1.83
2023-08-07T04:50:46.098Z,1.60
2023-08-07T04:53:12.964Z,1.40
2023-08-07T04:55:40.001Z,1.17
2023-08-07T04:58:07.010Z,1.50
2023-08-07T05:00:34.138Z,1.40
2023-08-07T05:03:01.390Z,1.37
2023-08-07T05:05:28.932Z,1.33
2023-08-07T05:07:56.660Z,1.10
2023-08-07T05:10:23.565Z,1.30
2023-08-07T05:12:56.224Z,1.37
2023-08-07T05:15:27.169Z,1.30
2023-08-07T05:17:54.247Z,1.27
2023-08-07T05:20:21.375Z,1.40
2023-08-07T05:22:48.266Z,1.40
2023-08-07T05:25:17.079Z,1.37
2023-08-07T05:27:44.768Z,1.43
2023-08-07T05:30:12.380Z,1.20
2023-08-07T05:32:39.291Z,1.10
2023-08-07T05:35:07.109Z,1.30
2023-08-07T05:37:34.696Z,1.20
2023-08-07T05:40:01.619Z,1.23
2023-08-07T05:42:28.795Z,1.77
2023-08-07T05:44:55.805Z,1.40
2023-08-07T05:47:22.632Z,1.20
2023-08-07T05:49:49.412Z,1.33
2023-08-07T05:52:16.866Z,1.30
2023-08-07T05:54:43.668Z,1.20
2023-08-07T05:57:10.959Z,1.47
2023-08-07T05:59:37.822Z,1.70
2023-08-07T06:02:05.519Z,1.33
2023-08-07T06:04:32.609Z,1.20
2023-08-07T06:06:59.403Z,1.20
2023-08-07T06:09:26.779Z,1.00
2023-08-07T06:11:53.789Z,1.50
2023-08-07T06:14:20.714Z,1.40
2023-08-07T06:16:47.609Z,1.23
2023-08-07T06:19:29.229Z,1.50
2023-08-07T06:21:58.906Z,1.00
2023-08-07T06:24:26.983Z,1.20
2023-08-07T06:26:53.956Z,1.10
2023-08-07T06:29:20.707Z,1.93
2023-08-07T06:31:47.496Z,1.00
2023-08-07T06:34:14.354Z,1.37
2023-08-07T06:36:41.414Z,1.30
2023-08-07T06:39:08.260Z,1.27
2023-08-07T06:41:35.054Z,1.00
2023-08-07T06:44:01.845Z,0.90
2023-08-07T06:46:29.114Z,1.10
2023-08-07T06:48:55.963Z,1.23
2023-08-07T06:51:22.929Z,1.00
2023-08-07T06:53:49.753Z,1.00
2023-08-07T06:56:16.591Z,1.27
2023-08-07T06:58:43.545Z,1.30
2023-08-07T07:01:10.455Z,1.13
2023-08-07T07:03:37.265Z,0.90
2023-08-07T07:06:04.361Z,1.13
2023-08-07T07:08:31.130Z,1.15
2023-08-07T07:10:59.537Z,1.08
2023-08-07T07:13:26.352Z,1.30
2023-08-07T07:15:56.694Z,1.10
2023-08-07T07:18:23.627Z,1.10
2023-08-07T07:20:58.681Z,0.90
2023-08-07T07:23:25.963Z,0.90
2023-08-07T07:25:52.755Z,0.93
2023-08-07T07:28:19.594Z,1.45
2023-08-07T07:30:46.502Z,1.02
2023-08-07T07:33:14.986Z,0.90
2023-08-07T07:35:41.864Z,1.30
2023-08-07T07:38:09.166Z,1.30
2023-08-07T07:40:36.366Z,0.90
2023-08-07T07:43:04.315Z,1.20
2023-08-07T07:45:31.259Z,1.15
2023-08-07T07:47:58.159Z,0.90
2023-08-07T07:50:25.015Z,0.98
2023-08-07T07:52:51.837Z,1.13
2023-08-07T07:55:18.734Z,1.05
2023-08-07T07:57:45.577Z,1.00
2023-08-07T08:00:14.287Z,0.80
2023-08-07T08:02:44.613Z,0.80
2023-08-07T08:05:16.722Z,1.08
2023-08-07T08:07:43.850Z,1.38
2023-08-07T08:10:11.140Z,0.90
2023-08-07T08:12:38.195Z,0.80
2023-08-07T08:15:06.040Z,0.88
2023-08-07T08:17:33.339Z,1.20
2023-08-07T08:20:00.490Z,0.82
2023-08-07T08:22:27.373Z,1.08
2023-08-07T08:24:54.188Z,0.90
2023-08-07T08:27:21.037Z,0.98
2023-08-07T08:29:47.915Z,1.20
2023-08-07T08:32:15.114Z,1.35
2023-08-07T08:34:41.987Z,0.90
2023-08-07T08:37:09.210Z,1.15
2023-08-07T08:39:36.088Z,0.82
2023-08-07T08:42:03.481Z,1.00
2023-08-07T08:44:32.537Z,0.98
2023-08-07T08:47:01.636Z,0.80
2023-08-07T08:49:33.736Z,1.10
2023-08-07T08:52:01.119Z,0.98
2023-08-07T08:54:28.198Z,1.20
2023-08-07T08:56:58.426Z,1.00
2023-08-07T08:59:25.625Z,1.05
2023-08-07T09:01:53.918Z,0.98
2023-08-07T09:04:20.869Z,1.23
2023-08-07T09:06:48.724Z,1.10
2023-08-07T09:09:17.820Z,1.10
2023-08-07T09:11:47.044Z,0.90
2023-08-07T09:14:23.291Z,1.05
2023-08-07T09:16:51.390Z,1.05
2023-08-07T09:19:18.602Z,1.20
2023-08-07T09:21:45.417Z,0.88
2023-08-07T09:24:12.947Z,0.90
2023-08-07T09:26:46.142Z,1.17
2023-08-07T09:29:13.384Z,1.00
2023-08-07T09:31:44.007Z,1.10
2023-08-07T09:34:11.284Z,1.00
2023-08-07T09:36:38.219Z,1.25
2023-08-07T09:39:05.829Z,1.00
2023-08-07T09:41:33.137Z,1.00
2023-08-07T09:44:07.697Z,0.90
2023-08-07T09:46:42.298Z,0.85
2023-08-07T09:49:09.934Z,1.10
2023-08-07T09:51:47.648Z,0.93
2023-08-07T09:54:14.806Z,0.98
2023-08-07T09:56:41.905Z,1.05
2023-08-07T09:59:09.539Z,0.80
2023-08-07T10:01:40.528Z,1.00
2023-08-07T10:04:08.535Z,1.15
2023-08-07T10:06:35.646Z,1.00
2023-08-07T10:09:03.393Z,1.00
2023-08-07T10:11:30.764Z,1.05
2023-08-07T10:13:58.802Z,1.17
2023-08-07T10:16:28.543Z,1.20
2023-08-07T10:18:55.696Z,0.90
2023-08-07T10:21:24.533Z,1.00
2023-08-07T10:23:55.228Z,1.08
2023-08-07T10:26:24.949Z,0.93
2023-08-07T10:28:54.607Z,1.10
2023-08-07T10:31:24.620Z,0.85
2023-08-07T10:33:52.183Z,1.00
2023-08-07T10:36:20.112Z,1.05
2023-08-07T10:38:50.946Z,1.27
2023-08-07T10:41:19.469Z,1.00
2023-08-07T10:43:47.196Z,1.00
2023-08-07T10:46:17.218Z,1.17
2023-08-07T10:48:48.600Z,1.20
2023-08-07T10:51:16.812Z,1.20
2023-08-07T10:53:46.967Z,0.95
2023-08-07T10:56:33.200Z,0.80
2023-08-07T10:59:10.577Z,1.00
2023-08-07T11:01:40.204Z,1.00
2023-08-07T11:04:11.889Z,1.05
2023-08-07T11:06:39.863Z,1.00
2023-08-07T11:09:09.892Z,1.13
2023-08-07T11:11:41.672Z,1.40
2023-08-07T11:14:10.704Z,0.85
2023-08-07T11:16:38.296Z,0.77
2023-08-07T11:19:06.391Z,0.95
2023-08-07T11:21:34.532Z,0.80
2023-08-07T11:24:02.519Z,0.70
2023-08-07T11:26:29.965Z,0.65
2023-08-07T11:28:57.221Z,0.90
2023-08-07T11:31:26.050Z,0.90
2023-08-07T11:33:53.923Z,0.80
2023-08-07T11:36:20.775Z,0.52
2023-08-07T11:38:47.736Z,0.40
2023-08-07T11:41:16.934Z,0.70
2023-08-07T11:43:44.466Z,0.70
2023-08-07T11:46:13.207Z,0.68
2023-08-07T11:48:42.353Z,0.70
2023-08-07T11:51:09.463Z,0.60
2023-08-07T11:53:41.206Z,0.80
2023-08-07T11:56:15.867Z,0.50
2023-08-07T11:58:47.067Z,0.60
2023-08-07T12:01:22.471Z,0.68
2023-08-07T12:03:52.582Z,0.70
2023-08-07T12:06:19.506Z,0.70
2023-08-07T12:08:46.322Z,0.60
2023-08-07T12:11:14.548Z,0.60
2023-08-07T12:13:43.381Z,0.70
2023-08-07T12:16:10.781Z,0.73
2023-08-07T12:18:39.816Z,0.70
2023-08-07T12:21:08.682Z,0.60
2023-08-07T12:23:36.944Z,0.50
2023-08-07T12:26:07.404Z,0.43
2023-08-07T12:28:35.689Z,0.50
2023-08-07T12:31:03.156Z,0.70
2023-08-07T12:33:30.768Z,0.60
2023-08-07T12:35:58.459Z,0.52
2023-08-07T12:38:25.610Z,0.60
2023-08-07T12:40:52.752Z,0.57
2023-08-07T12:43:19.704Z,0.60
2023-08-07T12:48:16.372Z,0.65
2023-08-07T12:50:43.204Z,0.68
2023-08-07T12:53:09.983Z,0.70
2023-08-07T12:55:36.863Z,0.57
2023-08-07T12:58:03.634Z,0.68
2023-08-07T13:00:30.499Z,0.63
2023-08-07T13:02:57.468Z,0.50
2023-08-07T13:05:24.331Z,0.70
2023-08-07T13:07:55.413Z,0.77
2023-08-07T13:10:23.371Z,0.50
2023-08-07T13:12:50.914Z,0.65
2023-08-07T13:15:18.592Z,1.13
2023-08-07T13:17:45.586Z,0.60
2023-08-07T13:20:14.382Z,0.82
2023-08-07T13:22:43.766Z,0.60
2023-08-07T13:25:11.999Z,0.80
2023-08-07T13:27:40.678Z,0.73
2023-08-07T13:30:08.879Z,0.80
2023-08-07T13:32:36.292Z,0.82
2023-08-07T13:35:04.272Z,0.60
2023-08-07T13:37:31.124Z,0.80
2023-08-07T13:39:57.918Z,0.70
2023-08-07T13:42:27.176Z,0.90
2023-08-07T13:44:54.914Z,0.90
2023-08-07T13:47:21.871Z,0.90
2023-08-07T13:49:49.173Z,0.80
2023-08-07T13:52:16.239Z,1.00
2023-08-07T13:54:43.252Z,0.60
2023-08-07T13:57:10.192Z,0.90
2023-08-07T13:59:37.006Z,0.80
2023-08-07T14:02:03.883Z,0.63
2023-08-07T14:04:30.785Z,0.60
2023-08-07T14:06:59.433Z,0.80
2023-08-07T14:09:26.667Z,0.60
2023-08-07T14:11:53.444Z,0.73
2023-08-07T14:14:20.601Z,0.80
2023-08-07T14:16:47.459Z,0.70
2023-08-07T14:19:14.495Z,0.50
2023-08-07T14:21:41.391Z,0.70
2023-08-07T14:24:08.286Z,1.77
2023-08-07T14:26:35.261Z,0.80
2023-08-07T14:29:02.104Z,0.68
2023-08-07T14:31:29.009Z,0.60
2023-08-07T14:33:55.871Z,0.80
2023-08-07T14:36:22.689Z,0.70
2023-08-07T14:38:49.462Z,0.73
2023-08-07T14:41:16.386Z,0.70
2023-08-07T14:43:43.141Z,0.90
2023-08-07T14:46:10.031Z,0.73
2023-08-07T14:48:37.988Z,0.70
2023-08-07T14:51:05.120Z,0.65
2023-08-07T14:53:32.562Z,0.90
2023-08-07T14:55:59.876Z,0.77
2023-08-07T14:58:26.628Z,0.52
2023-08-07T15:00:56.458Z,0.90
2023-08-07T15:03:23.319Z,0.80
2023-08-07T15:05:50.208Z,0.80
2023-08-07T15:08:17.028Z,0.90
2023-08-07T15:10:43.923Z,1.10
2023-08-07T15:13:10.901Z,0.85
2023-08-07T15:15:37.824Z,0.80
2023-08-07T15:18:06.410Z,0.75
2023-08-07T15:20:35.564Z,0.70
2023-08-07T15:23:03.936Z,0.77
2023-08-07T15:25:30.821Z,0.70
2023-08-07T15:28:01.323Z,0.60
2023-08-07T15:30:30.229Z,1.00
2023-08-07T15:32:57.407Z,0.63
2023-08-07T15:35:24.618Z,0.52
2023-08-07T15:37:51.508Z,0.45
2023-08-07T15:40:18.356Z,0.60
2023-08-07T15:42:46.588Z,0.50
2023-08-07T15:45:14.386Z,0.80
2023-08-07T15:47:41.534Z,0.63
2023-08-07T15:50:08.778Z,0.82
2023-08-07T15:52:35.738Z,0.50
2023-08-07T15:55:02.991Z,0.60
2023-08-07T15:57:30.055Z,0.47
2023-08-07T15:59:57.064Z,0.65
2023-08-07T16:02:23.831Z,0.60
2023-08-07T16:04:50.976Z,0.50
2023-08-07T16:07:17.876Z,0.73
2023-08-07T16:09:44.740Z,0.57
2023-08-07T16:12:11.678Z,0.73
2023-08-07T16:14:39.363Z,0.50
2023-08-07T16:17:06.603Z,0.70
2023-08-07T16:19:33.565Z,0.60
2023-08-07T16:22:00.398Z,0.70
2023-08-07T16:24:27.347Z,0.77
2023-08-07T16:26:54.318Z,0.60
2023-08-07T16:29:21.231Z,0.82
2023-08-07T16:31:48.087Z,0.68
2023-08-07T16:34:14.957Z,0.88
2023-08-07T16:36:41.769Z,0.90
2023-08-07T16:39:08.575Z,0.55
2023-08-07T16:41:35.629Z,0.80
2023-08-07T16:44:02.461Z,0.60
2023-08-07T16:46:30.853Z,0.60
2023-08-07T16:48:58.617Z,0.70
2023-08-07T16:51:27.200Z,0.90
2023-08-07T16:53:55.255Z,0.82
2023-08-07T16:56:22.115Z,0.70
2023-08-07T16:58:49.881Z,0.68
2023-08-07T17:01:17.121Z,0.70
2023-08-07T17:03:44.829Z,0.80
2023-08-07T17:06:11.850Z,0.55
2023-08-07T17:08:39.696Z,0.70
2023-08-07T17:11:06.749Z,0.73
2023-08-07T17:13:33.927Z,0.80
2023-08-07T17:16:00.832Z,0.80
2023-08-07T17:18:27.642Z,0.70
2023-08-07T17:20:54.464Z,0.70
2023-08-07T17:23:21.199Z,0.80
2023-08-07T17:25:48.058Z,0.68
2023-08-07T17:28:14.878Z,1.17
2023-08-07T17:30:41.696Z,0.73
2023-08-07T17:33:08.699Z,0.90
2023-08-07T17:35:35.952Z,0.85
2023-08-07T17:38:02.939Z,0.82
2023-08-07T17:40:29.733Z,0.70
2023-08-07T17:42:56.548Z,1.00
2023-08-07T17:45:24.720Z,0.80
2023-08-07T17:47:51.653Z,0.80
2023-08-07T17:50:18.669Z,0.95
2023-08-07T17:52:45.714Z,0.75
2023-08-07T17:55:13.752Z,0.88
2023-08-07T17:57:40.623Z,0.70
2023-08-07T18:00:17.285Z,0.95
2023-08-07T18:02:44.664Z,1.08
2023-08-07T18:05:11.868Z,1.08
2023-08-07T18:07:39.654Z,0.70
2023-08-07T18:10:07.177Z,0.93
2023-08-07T18:12:34.151Z,0.80
2023-08-07T18:15:01.672Z,0.88
2023-08-07T18:17:30.783Z,0.70
2023-08-07T18:19:57.772Z,0.85
2023-08-07T18:22:25.155Z,0.73
2023-08-07T18:24:51.919Z,0.83
2023-08-07T18:27:19.385Z,0.90
2023-08-07T18:29:46.225Z,0.93
2023-08-07T18:32:13.452Z,0.67
2023-08-07T18:34:40.539Z,0.65
2023-08-07T18:37:07.341Z,0.80
2023-08-07T18:39:34.176Z,0.75
2023-08-07T18:42:01.182Z,1.15
2023-08-07T18:44:27.972Z,0.68
2023-08-07T18:46:54.974Z,0.60
2023-08-07T18:49:22.193Z,0.80
2023-08-07T18:51:49.196Z,0.80
2023-08-07T18:54:16.112Z,0.80
2023-08-07T18:56:43.697Z,0.70
2023-08-07T18:59:10.653Z,0.70
2023-08-07T19:01:37.544Z,0.70
2023-08-07T19:04:05.598Z,0.60
2023-08-07T19:06:33.905Z,0.88
2023-08-07T19:09:00.821Z,0.98
2023-08-07T19:11:29.874Z,0.60
2023-08-07T19:13:58.311Z,0.70
2023-08-07T19:16:25.437Z,0.63
2023-08-07T19:18:52.396Z,0.60
2023-08-07T19:21:19.347Z,0.70
2023-08-07T19:23:46.165Z,0.70
2023-08-07T19:26:12.985Z,1.10
2023-08-07T19:28:41.143Z,0.77
2023-08-07T19:31:08.113Z,0.80
2023-08-07T19:33:35.157Z,0.70
2023-08-07T19:36:02.205Z,0.67
2023-08-07T19:38:29.167Z,0.82
2023-08-07T19:40:55.946Z,0.67
2023-08-07T19:43:24.383Z,0.80
2023-08-07T19:45:51.276Z,0.90
2023-08-07T19:48:18.228Z,0.90
2023-08-07T19:50:45.820Z,1.00
2023-08-07T19:53:12.648Z,0.80
2023-08-07T19:55:39.518Z,0.60
2023-08-07T19:58:06.236Z,0.80
2023-08-07T20:00:33.064Z,0.80
2023-08-07T20:03:00.326Z,0.70
2023-08-07T20:05:27.480Z,0.60
2023-08-07T20:07:54.929Z,0.73
2023-08-07T20:10:24.958Z,0.70
2023-08-07T20:12:52.497Z,0.57
2023-08-07T20:15:20.986Z,0.70
2023-08-07T20:17:50.075Z,0.80
2023-08-07T20:20:21.098Z,0.50
2023-08-07T20:22:48.897Z,0.60
2023-08-07T20:25:16.263Z,0.70
2023-08-07T20:27:43.490Z,0.70
2023-08-07T20:30:10.815Z,0.80
2023-08-07T20:32:38.726Z,0.80
2023-08-07T20:35:05.940Z,0.63
2023-08-07T20:37:32.723Z,0.80
2023-08-07T20:39:59.551Z,0.70
2023-08-07T20:42:26.574Z,0.70
2023-08-07T20:44:53.407Z,0.70
2023-08-07T20:47:20.234Z,0.70
2023-08-07T20:49:47.908Z,0.70
2023-08-07T20:52:14.789Z,1.00
2023-08-07T20:54:41.548Z,0.60
2023-08-07T20:57:08.353Z,0.60
2023-08-07T20:59:35.200Z,0.60
2023-08-07T21:02:02.203Z,0.80
2023-08-07T21:04:29.008Z,0.53
2023-08-07T21:06:56.051Z,0.70
2023-08-07T21:09:22.934Z,0.50
2023-08-07T21:11:50.000Z,0.60
2023-08-07T21:14:16.871Z,0.60
2023-08-07T21:16:44.981Z,0.60
2023-08-07T21:19:13.057Z,0.70
2023-08-07T21:21:40.394Z,0.70
2023-08-07T21:24:13.186Z,0.67
2023-08-07T21:26:41.666Z,0.50
2023-08-07T21:29:08.708Z,0.70
2023-08-07T21:31:35.818Z,0.70
2023-08-07T21:34:03.223Z,0.60
2023-08-07T21:36:30.154Z,0.60
2023-08-07T21:38:58.806Z,0.60
2023-08-07T21:41:27.148Z,0.60
2023-08-07T21:43:54.725Z,0.60
2023-08-07T21:46:24.140Z,0.67
2023-08-07T21:48:51.904Z,0.70
2023-08-07T21:51:19.039Z,0.60
2023-08-07T21:53:46.033Z,0.70
2023-08-07T21:56:13.073Z,0.67
2023-08-07T21:58:39.941Z,0.50
2023-08-07T22:01:06.651Z,0.67
2023-08-07T22:03:33.491Z,0.60
2023-08-07T22:06:00.487Z,0.47
2023-08-07T22:08:27.315Z,0.50
2023-08-07T22:10:54.159Z,0.60
2023-08-07T22:13:21.295Z,0.57
2023-08-07T22:15:48.257Z,0.77
2023-08-07T22:18:15.169Z,0.80
2023-08-07T22:20:43.415Z,0.70
2023-08-07T22:23:10.363Z,0.77
2023-08-07T22:25:37.311Z,0.60
2023-08-07T22:28:04.989Z,0.73
2023-08-07T22:30:31.736Z,0.80
2023-08-07T22:32:59.512Z,0.63
2023-08-07T22:35:26.710Z,0.70
2023-08-07T22:37:53.548Z,0.60
2023-08-07T22:40:20.505Z,0.80
2023-08-07T22:42:47.277Z,0.97
2023-08-07T22:45:14.306Z,0.57
2023-08-07T22:47:41.110Z,0.80
2023-08-07T22:50:08.275Z,0.80
2023-08-07T22:52:35.305Z,0.70
2023-08-07T22:55:02.331Z,0.63
2023-08-07T22:57:29.086Z,0.60
2023-08-07T22:59:55.882Z,0.70
2023-08-07T23:02:22.697Z,0.63
2023-08-07T23:04:49.465Z,0.90
2023-08-07T23:07:17.116Z,0.80
2023-08-07T23:09:43.987Z,1.00
2023-08-07T23:12:11.019Z,0.70
2023-08-07T23:14:37.753Z,0.83
2023-08-07T23:17:05.421Z,0.63
2023-08-07T23:19:33.314Z,0.87
2023-08-07T23:22:00.303Z,0.70
2023-08-07T23:24:27.326Z,0.90
2023-08-07T23:26:54.177Z,0.90
2023-08-07T23:29:21.281Z,0.70
2023-08-07T23:31:48.187Z,0.93
2023-08-07T23:34:15.013Z,0.83
2023-08-07T23:36:41.830Z,0.73
2023-08-07T23:39:08.996Z,0.83
2023-08-07T23:41:35.942Z,0.90
2023-08-07T23:44:02.850Z,0.93
2023-08-07T23:46:29.627Z,1.10
2023-08-07T23:48:56.835Z,0.80
2023-08-07T23:51:24.401Z,0.73
2023-08-07T23:53:51.596Z,0.80
2023-08-07T23:56:18.613Z,0.80
2023-08-07T23:58:45.383Z,0.97
